sensor_id;sensor_type;location;lat;lon;timestamp;pressure;altitude;pressure_sealevel;temperature;humidity
17060;BME280;8646;49.716;9.266;2023-08-07T00:01:06;99850.97;;;14.82;89.16
17060;BME280;8646;49.716;9.266;2023-08-07T00:04:09;99849.78;;;14.86;88.56
17060;BME280;8646;49.716;9.266;2023-08-07T00:07:14;99853.47;;;14.85;88.79
17060;BME280;8646;49.716;9.266;2023-08-07T00:10:16;99861.63;;;14.85;88.65
17060;BME280;8646;49.716;9.266;2023-08-07T00:13:25;99862.84;;;14.81;88.79
17060;BME280;8646;49.716;9.266;2023-08-07T00:16:28;99857.41;;;14.81;89.08
17060;BME280;8646;49.716;9.266;2023-08-07T00:19:30;99864.88;;;14.78;89.36
17060;BME280;8646;49.716;9.266;2023-08-07T00:22:35;99866.63;;;14.79;88.76
17060;BME280;8646;49.716;9.266;2023-08-07T00:25:37;99864.97;;;14.76;89.28
17060;BME280;8646;49.716;9.266;2023-08-07T00:28:40;99856.72;;;14.78;89.40
17060;BME280;8646;49.716;9.266;2023-08-07T00:31:43;99861.28;;;14.77;89.04
17060;BME280;8646;49.716;9.266;2023-08-07T00:34:46;99864.00;;;14.77;88.52
17060;BME280;8646;49.716;9.266;2023-08-07T00:37:50;99863.03;;;14.78;88.88
17060;BME280;8646;49.716;9.266;2023-08-07T00:40:53;99866.97;;;14.74;88.87
17060;BME280;8646;49.716;9.266;2023-08-07T00:43:55;99866.38;;;14.69;88.75
17060;BME280;8646;49.716;9.266;2023-08-07T00:46:58;99864.75;;;14.67;88.69
17060;BME280;8646;49.716;9.266;2023-08-07T00:50:04;99868.34;;;14.67;88.85
17060;BME280;8646;49.716;9.266;2023-08-07T00:53:09;99870.19;;;14.67;88.63
17060;BME280;8646;49.716;9.266;2023-08-07T00:56:11;99862.13;;;14.65;88.71
17060;BME280;8646;49.716;9.266;2023-08-07T00:59:14;99873.88;;;14.66;89.15
17060;BME280;8646;49.716;9.266;2023-08-07T01:02:18;99877.78;;;14.62;89.12
17060;BME280;8646;49.716;9.266;2023-08-07T01:05:22;99883.22;;;14.62;88.92
17060;BME280;8646;49.716;9.266;2023-08-07T01:08:27;99878.09;;;14.57;89.04
17060;BME280;8646;49.716;9.266;2023-08-07T01:11:34;99867.97;;;14.59;88.76
17060;BME280;8646;49.716;9.266;2023-08-07T01:14:47;99877.00;;;14.60;89.66
17060;BME280;8646;49.716;9.266;2023-08-07T01:17:53;99872.56;;;14.59;89.13
17060;BME280;8646;49.716;9.266;2023-08-07T01:20:56;99876.91;;;14.61;88.93
17060;BME280;8646;49.716;9.266;2023-08-07T01:24:00;99880.59;;;14.60;89.02
17060;BME280;8646;49.716;9.266;2023-08-07T01:27:11;99885.84;;;14.63;88.93
17060;BME280;8646;49.716;9.266;2023-08-07T01:30:20;99852.44;;;14.47;88.48
17060;BME280;8646;49.716;9.266;2023-08-07T01:33:30;99876.72;;;14.64;88.54
17060;BME280;8646;49.716;9.266;2023-08-07T01:36:35;99885.94;;;14.62;88.75
17060;BME280;8646;49.716;9.266;2023-08-07T01:39:40;99883.22;;;14.62;88.45
17060;BME280;8646;49.716;9.266;2023-08-07T01:42:44;99885.06;;;14.61;88.61
17060;BME280;8646;49.716;9.266;2023-08-07T01:45:47;99885.75;;;14.65;88.15
17060;BME280;8646;49.716;9.266;2023-08-07T01:48:50;99880.41;;;14.63;88.17
17060;BME280;8646;49.716;9.266;2023-08-07T01:51:53;99886.03;;;14.60;88.64
17060;BME280;8646;49.716;9.266;2023-08-07T01:54:57;99886.44;;;14.54;88.85
17060;BME280;8646;49.716;9.266;2023-08-07T01:57:59;99899.66;;;14.60;88.36
17060;BME280;8646;49.716;9.266;2023-08-07T02:01:02;99892.88;;;14.53;88.61
17060;BME280;8646;49.716;9.266;2023-08-07T02:04:05;99885.38;;;14.57;88.48
17060;BME280;8646;49.716;9.266;2023-08-07T02:07:09;99890.38;;;14.50;88.52
17060;BME280;8646;49.716;9.266;2023-08-07T02:10:13;99900.38;;;14.49;88.27
17060;BME280;8646;49.716;9.266;2023-08-07T02:13:16;99906.47;;;14.53;88.14
17060;BME280;8646;49.716;9.266;2023-08-07T02:16:19;99900.16;;;14.52;88.11
17060;BME280;8646;49.716;9.266;2023-08-07T02:19:22;99910.94;;;14.54;88.05
17060;BME280;8646;49.716;9.266;2023-08-07T02:22:25;99897.34;;;14.54;87.85
17060;BME280;8646;49.716;9.266;2023-08-07T02:25:29;99901.72;;;14.57;88.10
17060;BME280;8646;49.716;9.266;2023-08-07T02:28:32;99910.94;;;14.54;87.80
17060;BME280;8646;49.716;9.266;2023-08-07T02:31:37;99903.56;;;14.56;87.95
17060;BME280;8646;49.716;9.266;2023-08-07T02:34:39;99911.81;;;14.55;87.76
17060;BME280;8646;49.716;9.266;2023-08-07T02:37:42;99909.19;;;14.53;87.88
17060;BME280;8646;49.716;9.266;2023-08-07T02:40:46;99917.97;;;14.58;87.69
17060;BME280;8646;49.716;9.266;2023-08-07T02:43:49;99907.16;;;14.57;87.23
17060;BME280;8646;49.716;9.266;2023-08-07T02:46:52;99902.13;;;14.50;87.32
17060;BME280;8646;49.716;9.266;2023-08-07T02:49:55;99914.56;;;14.55;87.14
17060;BME280;8646;49.716;9.266;2023-08-07T02:52:58;99914.56;;;14.55;87.12
17060;BME280;8646;49.716;9.266;2023-08-07T02:56:03;99917.38;;;14.53;87.27
17060;BME280;8646;49.716;9.266;2023-08-07T02:59:05;99911.03;;;14.52;87.30
17060;BME280;8646;49.716;9.266;2023-08-07T03:02:08;99915.63;;;14.52;87.16
17060;BME280;8646;49.716;9.266;2023-08-07T03:05:11;99916.31;;;14.56;86.52
17060;BME280;8646;49.716;9.266;2023-08-07T03:08:15;99915.44;;;14.55;86.39
17060;BME280;8646;49.716;9.266;2023-08-07T03:11:19;99912.81;;;14.54;86.59
17060;BME280;8646;49.716;9.266;2023-08-07T03:14:22;99883.34;;;14.32;86.46
17060;BME280;8646;49.716;9.266;2023-08-07T03:17:24;99923.03;;;14.50;86.30
17060;BME280;8646;49.716;9.266;2023-08-07T03:20:27;99921.28;;;14.49;86.22
17060;BME280;8646;49.716;9.266;2023-08-07T03:23:33;99921.28;;;14.49;86.35
17060;BME280;8646;49.716;9.266;2023-08-07T03:26:38;99915.84;;;14.49;85.96
17060;BME280;8646;49.716;9.266;2023-08-07T03:29:40;99916.50;;;14.52;85.82
17060;BME280;8646;49.716;9.266;2023-08-07T03:32:46;99924.78;;;14.51;85.89
17060;BME280;8646;49.716;9.266;2023-08-07T03:35:49;99922.06;;;14.51;85.60
17060;BME280;8646;49.716;9.266;2023-08-07T03:38:52;99928.56;;;14.48;86.16
17060;BME280;8646;49.716;9.266;2023-08-07T03:41:56;99924.41;;;14.43;85.77
17060;BME280;8646;49.716;9.266;2023-08-07T03:44:59;99939.56;;;14.47;86.00
17060;BME280;8646;49.716;9.266;2023-08-07T03:48:03;99936.94;;;14.45;86.07
17060;BME280;8646;49.716;9.266;2023-08-07T03:51:06;99932.06;;;14.50;85.23
17060;BME280;8646;49.716;9.266;2023-08-07T03:54:10;99931.38;;;14.47;85.36
17060;BME280;8646;49.716;9.266;2023-08-07T03:57:14;99942.47;;;14.44;85.74
17060;BME280;8646;49.716;9.266;2023-08-07T04:00:17;99939.75;;;14.44;85.60
17060;BME280;8646;49.716;9.266;2023-08-07T04:03:20;99939.97;;;14.41;85.80
17060;BME280;8646;49.716;9.266;2023-08-07T04:06:23;99940.84;;;14.41;85.35
17060;BME280;8646;49.716;9.266;2023-08-07T04:09:28;99945.19;;;14.44;85.29
17060;BME280;8646;49.716;9.266;2023-08-07T04:12:32;99945.41;;;14.41;85.00
17060;BME280;8646;49.716;9.266;2023-08-07T04:15:37;99950.63;;;14.44;85.13
17060;BME280;8646;49.716;9.266;2023-08-07T04:18:40;99952.69;;;14.40;85.29
17060;BME280;8646;49.716;9.266;2023-08-07T04:21:42;99946.47;;;14.38;85.13
17060;BME280;8646;49.716;9.266;2023-08-07T04:24:47;99959.59;;;14.46;84.92
17060;BME280;8646;49.716;9.266;2023-08-07T04:27:51;99951.72;;;14.41;85.17
17060;BME280;8646;49.716;9.266;2023-08-07T04:30:57;99963.28;;;14.45;84.94
17060;BME280;8646;49.716;9.266;2023-08-07T04:33:59;99956.69;;;14.49;84.84
17060;BME280;8646;49.716;9.266;2023-08-07T04:37:03;99971.66;;;14.42;85.13
17060;BME280;8646;49.716;9.266;2023-08-07T04:40:07;99959.81;;;14.43;85.49
17060;BME280;8646;49.716;9.266;2023-08-07T04:43:12;99963.38;;;14.43;85.43
17060;BME280;8646;49.716;9.266;2023-08-07T04:46:15;99963.50;;;14.42;85.27
17060;BME280;8646;49.716;9.266;2023-08-07T04:49:18;99970.69;;;14.43;85.33
17060;BME280;8646;49.716;9.266;2023-08-07T04:52:21;99976.13;;;14.43;85.12
17060;BME280;8646;49.716;9.266;2023-08-07T04:55:27;99974.38;;;14.42;85.45
17060;BME280;8646;49.716;9.266;2023-08-07T04:58:31;99977.66;;;14.47;85.34
17060;BME280;8646;49.716;9.266;2023-08-07T05:01:34;99982.34;;;14.45;85.43
17060;BME280;8646;49.716;9.266;2023-08-07T05:04:37;99982.94;;;14.50;85.36
17060;BME280;8646;49.716;9.266;2023-08-07T05:07:40;99976.88;;;14.45;85.26
17060;BME280;8646;49.716;9.266;2023-08-07T05:10:43;99984.09;;;14.46;85.10
17060;BME280;8646;49.716;9.266;2023-08-07T05:13:47;99975.91;;;14.46;85.00
17060;BME280;8646;49.716;9.266;2023-08-07T05:16:50;99986.41;;;14.52;85.37
17060;BME280;8646;49.716;9.266;2023-08-07T05:19:53;99980.78;;;14.55;85.16
17060;BME280;8646;49.716;9.266;2023-08-07T05:22:58;99987.97;;;14.56;85.02
17060;BME280;8646;49.716;9.266;2023-08-07T05:26:01;99984.06;;;14.60;84.94
17060;BME280;8646;49.716;9.266;2023-08-07T05:29:06;99994.78;;;14.63;84.77
17060;BME280;8646;49.716;9.266;2023-08-07T05:32:09;99989.13;;;14.66;84.47
17060;BME280;8646;49.716;9.266;2023-08-07T05:35:14;99995.94;;;14.73;83.80
17060;BME280;8646;49.716;9.266;2023-08-07T05:38:17;99996.53;;;14.64;84.10
17060;BME280;8646;49.716;9.266;2023-08-07T05:41:19;99997.97;;;14.70;84.08
17060;BME280;8646;49.716;9.266;2023-08-07T05:44:23;100008.28;;;14.65;84.02
17060;BME280;8646;49.716;9.266;2023-08-07T05:47:26;100003.91;;;14.62;84.12
17060;BME280;8646;49.716;9.266;2023-08-07T05:50:29;100003.81;;;14.64;84.50
17060;BME280;8646;49.716;9.266;2023-08-07T05:53:32;100003.22;;;14.73;83.42
17060;BME280;8646;49.716;9.266;2023-08-07T05:56:37;100008.78;;;14.71;84.25
17060;BME280;8646;49.716;9.266;2023-08-07T05:59:42;100009.16;;;14.79;83.85
17060;BME280;8646;49.716;9.266;2023-08-07T06:02:44;100017.59;;;14.89;83.75
17060;BME280;8646;49.716;9.266;2023-08-07T06:05:47;100010.88;;;14.95;83.58
17060;BME280;8646;49.716;9.266;2023-08-07T06:08:50;100016.91;;;15.00;83.81
17060;BME280;8646;49.716;9.266;2023-08-07T06:11:53;100015.72;;;15.04;82.89
17060;BME280;8646;49.716;9.266;2023-08-07T06:14:58;100020.84;;;15.08;83.44
17060;BME280;8646;49.716;9.266;2023-08-07T06:18:01;100022.09;;;15.17;83.17
17060;BME280;8646;49.716;9.266;2023-08-07T06:21:04;100022.00;;;15.18;82.96
17060;BME280;8646;49.716;9.266;2023-08-07T06:24:08;100023.66;;;15.21;82.74
17060;BME280;8646;49.716;9.266;2023-08-07T06:27:11;100017.75;;;15.14;82.80
17060;BME280;8646;49.716;9.266;2023-08-07T06:30:15;100024.72;;;15.18;82.91
17060;BME280;8646;49.716;9.266;2023-08-07T06:33:18;100026.56;;;15.18;82.61
17060;BME280;8646;49.716;9.266;2023-08-07T06:36:20;100030.88;;;15.22;82.02
17060;BME280;8646;49.716;9.266;2023-08-07T06:39:23;100034.56;;;15.21;82.53
17060;BME280;8646;49.716;9.266;2023-08-07T06:42:26;100028.91;;;15.24;82.26
17060;BME280;8646;49.716;9.266;2023-08-07T06:45:30;100041.44;;;15.26;82.10
17060;BME280;8646;49.716;9.266;2023-08-07T06:48:33;100037.47;;;15.32;81.94
17060;BME280;8646;49.716;9.266;2023-08-07T06:51:36;100038.00;;;15.37;82.00
17060;BME280;8646;49.716;9.266;2023-08-07T06:54:39;100048.81;;;15.39;81.67
17060;BME280;8646;49.716;9.266;2023-08-07T06:57:41;100064.56;;;15.48;80.81
17060;BME280;8646;49.716;9.266;2023-08-07T07:00:46;100047.72;;;15.41;81.23
17060;BME280;8646;49.716;9.266;2023-08-07T07:03:49;100045.59;;;15.46;80.79
17060;BME280;8646;49.716;9.266;2023-08-07T07:06:54;100054.53;;;15.48;81.19
17060;BME280;8646;49.716;9.266;2023-08-07T07:09:57;100061.53;;;15.52;80.94
17060;BME280;8646;49.716;9.266;2023-08-07T07:13:02;100057.53;;;15.58;80.70
17060;BME280;8646;49.716;9.266;2023-08-07T07:16:07;100066.94;;;15.67;81.08
17060;BME280;8646;49.716;9.266;2023-08-07T07:19:10;100060.88;;;15.76;79.87
17060;BME280;8646;49.716;9.266;2023-08-07T07:22:12;100077.47;;;15.73;79.75
17060;BME280;8646;49.716;9.266;2023-08-07T07:25:15;100085.22;;;15.79;79.80
17060;BME280;8646;49.716;9.266;2023-08-07T07:28:18;100081.53;;;15.80;79.92
17060;BME280;8646;49.716;9.266;2023-08-07T07:31:22;100087.84;;;15.80;79.86
17060;BME280;8646;49.716;9.266;2023-08-07T07:34:25;100100.13;;;15.73;79.63
17060;BME280;8646;49.716;9.266;2023-08-07T07:37:28;100105.91;;;15.69;80.06
17060;BME280;8646;49.716;9.266;2023-08-07T07:40:33;100102.81;;;15.60;80.21
17060;BME280;8646;49.716;9.266;2023-08-07T07:43:36;100113.13;;;15.70;80.87
17060;BME280;8646;49.716;9.266;2023-08-07T07:46:40;100107.94;;;15.79;80.00
17060;BME280;8646;49.716;9.266;2023-08-07T07:49:45;100117.97;;;15.79;80.65
17060;BME280;8646;49.716;9.266;2023-08-07T07:52:49;100126.94;;;15.81;80.71
17060;BME280;8646;49.716;9.266;2023-08-07T07:55:51;100127.13;;;15.78;80.77
17060;BME280;8646;49.716;9.266;2023-08-07T07:58:54;100137.69;;;15.70;81.05
17060;BME280;8646;49.716;9.266;2023-08-07T08:01:59;100137.69;;;15.70;80.72
17060;BME280;8646;49.716;9.266;2023-08-07T08:05:01;100144.31;;;15.65;80.33
17060;BME280;8646;49.716;9.266;2023-08-07T08:08:05;100146.56;;;15.59;80.83
17060;BME280;8646;49.716;9.266;2023-08-07T08:11:08;100152.34;;;15.54;81.11
17060;BME280;8646;49.716;9.266;2023-08-07T08:14:11;100160.19;;;15.59;81.50
17060;BME280;8646;49.716;9.266;2023-08-07T08:17:15;100160.09;;;15.60;81.50
17060;BME280;8646;49.716;9.266;2023-08-07T08:20:18;100162.31;;;15.68;81.52
17060;BME280;8646;49.716;9.266;2023-08-07T08:23:21;100157.91;;;15.80;81.08
17060;BME280;8646;49.716;9.266;2023-08-07T08:26:24;100168.97;;;15.91;81.18
17060;BME280;8646;49.716;9.266;2023-08-07T08:29:26;100161.94;;;16.01;80.57
17060;BME280;8646;49.716;9.266;2023-08-07T08:32:31;100166.84;;;16.09;80.83
17060;BME280;8646;49.716;9.266;2023-08-07T08:35:34;100162.81;;;16.14;80.32
17060;BME280;8646;49.716;9.266;2023-08-07T08:38:36;100155.41;;;16.16;79.73
17060;BME280;8646;49.716;9.266;2023-08-07T08:41:40;100182.94;;;16.13;79.61
17060;BME280;8646;49.716;9.266;2023-08-07T08:44:48;100177.13;;;16.05;79.82
17060;BME280;8646;49.716;9.266;2023-08-07T08:47:59;100184.31;;;16.06;79.51
17060;BME280;8646;49.716;9.266;2023-08-07T08:51:04;100180.94;;;16.02;78.85
17060;BME280;8646;49.716;9.266;2023-08-07T08:54:09;100180.94;;;16.02;79.56
17060;BME280;8646;49.716;9.266;2023-08-07T08:57:12;100185.09;;;16.08;79.55
17060;BME280;8646;49.716;9.266;2023-08-07T09:00:16;100178.31;;;16.14;79.43
17060;BME280;8646;49.716;9.266;2023-08-07T09:03:24;100191.34;;;16.23;78.88
17060;BME280;8646;49.716;9.266;2023-08-07T09:06:27;100183.16;;;16.23;79.25
17060;BME280;8646;49.716;9.266;2023-08-07T09:09:33;100181.91;;;16.28;78.75
17060;BME280;8646;49.716;9.266;2023-08-07T09:12:40;100179.72;;;16.33;78.30
17060;BME280;8646;49.716;9.266;2023-08-07T09:15:44;100178.94;;;16.31;78.27
17060;BME280;8646;49.716;9.266;2023-08-07T09:18:53;100194.16;;;16.35;77.67
17060;BME280;8646;49.716;9.266;2023-08-07T09:21:57;100193.16;;;16.36;77.72
17060;BME280;8646;49.716;9.266;2023-08-07T09:24:59;100185.19;;;16.33;78.29
17060;BME280;8646;49.716;9.266;2023-08-07T09:28:03;100153.91;;;16.25;77.91
17060;BME280;8646;49.716;9.266;2023-08-07T09:31:06;100182.34;;;16.35;77.98
17060;BME280;8646;49.716;9.266;2023-08-07T09:34:12;100177.66;;;16.37;77.44
17060;BME280;8646;49.716;9.266;2023-08-07T09:37:23;100195.13;;;16.34;77.16
17060;BME280;8646;49.716;9.266;2023-08-07T09:40:26;100197.16;;;16.31;77.34
17060;BME280;8646;49.716;9.266;2023-08-07T09:43:29;100206.81;;;16.36;77.62
17060;BME280;8646;49.716;9.266;2023-08-07T09:46:31;100205.09;;;16.48;77.99
17060;BME280;8646;49.716;9.266;2023-08-07T09:49:40;100218.69;;;16.62;77.49
17060;BME280;8646;49.716;9.266;2023-08-07T09:52:46;100217.19;;;16.71;77.70
17060;BME280;8646;49.716;9.266;2023-08-07T09:55:51;100221.56;;;16.73;77.67
17060;BME280;8646;49.716;9.266;2023-08-07T09:58:54;100209.31;;;16.79;77.14
17060;BME280;8646;49.716;9.266;2023-08-07T10:01:59;100210.09;;;16.81;77.29
17060;BME280;8646;49.716;9.266;2023-08-07T10:05:04;100222.59;;;16.85;77.66
17060;BME280;8646;49.716;9.266;2023-08-07T10:08:07;100218.75;;;16.88;77.23
17060;BME280;8646;49.716;9.266;2023-08-07T10:11:11;100226.19;;;16.98;76.25
17060;BME280;8646;49.716;9.266;2023-08-07T10:14:18;100230.34;;;16.91;77.17
17060;BME280;8646;49.716;9.266;2023-08-07T10:17:22;100224.88;;;16.91;77.41
17060;BME280;8646;49.716;9.266;2023-08-07T10:20:27;100234.72;;;16.94;77.13
17060;BME280;8646;49.716;9.266;2023-08-07T10:23:32;100240.84;;;16.97;77.23
17060;BME280;8646;49.716;9.266;2023-08-07T10:26:45;100233.84;;;17.06;77.33
17060;BME280;8646;49.716;9.266;2023-08-07T10:29:50;100237.56;;;17.05;77.32
17060;BME280;8646;49.716;9.266;2023-08-07T10:32:54;100246.09;;;17.00;76.93
17060;BME280;8646;49.716;9.266;2023-08-07T10:35:59;100246.31;;;16.97;77.40
17060;BME280;8646;49.716;9.266;2023-08-07T10:39:09;100254.50;;;16.85;77.51
17060;BME280;8646;49.716;9.266;2023-08-07T10:42:12;100248.00;;;16.73;77.24
17060;BME280;8646;49.716;9.266;2023-08-07T10:45:16;100254.69;;;16.69;77.38
17060;BME280;8646;49.716;9.266;2023-08-07T10:48:20;100259.00;;;16.59;77.85
17060;BME280;8646;49.716;9.266;2023-08-07T10:51:28;100259.19;;;16.56;77.93
17060;BME280;8646;49.716;9.266;2023-08-07T10:54:37;100263.03;;;16.53;78.31
17060;BME280;8646;49.716;9.266;2023-08-07T10:57:46;100274.94;;;16.52;78.45
17060;BME280;8646;49.716;9.266;2023-08-07T11:00:49;100255.47;;;16.57;77.96
17060;BME280;8646;49.716;9.266;2023-08-07T11:03:54;100255.88;;;16.65;77.69
17060;BME280;8646;49.716;9.266;2023-08-07T11:06:58;100262.22;;;16.65;77.56
17060;BME280;8646;49.716;9.266;2023-08-07T11:10:01;100265.91;;;16.64;77.29
17060;BME280;8646;49.716;9.266;2023-08-07T11:13:04;100257.81;;;16.63;77.14
17060;BME280;8646;49.716;9.266;2023-08-07T11:16:07;100265.03;;;16.64;77.32
17060;BME280;8646;49.716;9.266;2023-08-07T11:19:13;100259.38;;;16.67;77.77
17060;BME280;8646;49.716;9.266;2023-08-07T11:22:18;100265.50;;;16.70;77.82
17060;BME280;8646;49.716;9.266;2023-08-07T11:25:21;100271.19;;;16.80;77.15
17060;BME280;8646;49.716;9.266;2023-08-07T11:28:25;100264.13;;;16.77;77.03
17060;BME280;8646;49.716;9.266;2023-08-07T11:31:27;100276.91;;;16.77;77.21
17060;BME280;8646;49.716;9.266;2023-08-07T11:34:30;100283.34;;;16.76;77.23
17060;BME280;8646;49.716;9.266;2023-08-07T11:37:35;100279.41;;;16.80;77.46
17060;BME280;8646;49.716;9.266;2023-08-07T11:40:38;100291.78;;;16.86;77.26
17060;BME280;8646;49.716;9.266;2023-08-07T11:43:41;100289.59;;;16.91;77.37
17060;BME280;8646;49.716;9.266;2023-08-07T11:46:44;100296.38;;;16.98;77.32
17060;BME280;8646;49.716;9.266;2023-08-07T11:49:47;100289.59;;;17.03;76.88
17060;BME280;8646;49.716;9.266;2023-08-07T11:52:51;100294.31;;;17.01;76.20
17060;BME280;8646;49.716;9.266;2023-08-07T11:55:56;100290.72;;;17.01;76.54
17060;BME280;8646;49.716;9.266;2023-08-07T11:58:59;100302.94;;;16.95;76.83
17060;BME280;8646;49.716;9.266;2023-08-07T12:02:09;100292.88;;;16.83;77.08
17060;BME280;8646;49.716;9.266;2023-08-07T12:05:13;100304.00;;;16.80;76.91
17060;BME280;8646;49.716;9.266;2023-08-07T12:08:19;100295.53;;;16.70;77.47
17060;BME280;8646;49.716;9.266;2023-08-07T12:11:22;100307.50;;;16.82;77.71
17060;BME280;8646;49.716;9.266;2023-08-07T12:14:29;100309.91;;;16.87;77.57
17060;BME280;8646;49.716;9.266;2023-08-07T12:17:35;100304.34;;;16.88;77.19
17060;BME280;8646;49.716;9.266;2023-08-07T12:20:41;100314.19;;;16.91;77.46
17060;BME280;8646;49.716;9.266;2023-08-07T12:23:49;100304.34;;;16.88;77.42
17060;BME280;8646;49.716;9.266;2023-08-07T12:26:54;100317.81;;;16.91;77.51
17060;BME280;8646;49.716;9.266;2023-08-07T12:29:58;100325.03;;;16.92;77.71
17060;BME280;8646;49.716;9.266;2023-08-07T12:33:01;100328.31;;;16.97;77.31
17060;BME280;8646;49.716;9.266;2023-08-07T12:36:06;100330.16;;;16.97;77.30
17060;BME280;8646;49.716;9.266;2023-08-07T12:39:22;100319.56;;;16.92;77.64
17060;BME280;8646;49.716;9.266;2023-08-07T12:42:45;100321.31;;;16.93;77.41
17060;BME280;8646;49.716;9.266;2023-08-07T12:45:48;100327.97;;;16.89;77.01
17060;BME280;8646;49.716;9.266;2023-08-07T12:48:53;100331.91;;;16.85;77.50
17060;BME280;8646;49.716;9.266;2023-08-07T12:51:56;100317.25;;;16.86;77.61
17060;BME280;8646;49.716;9.266;2023-08-07T12:55:01;100321.53;;;16.90;77.48
17060;BME280;8646;49.716;9.266;2023-08-07T12:58:04;100326.09;;;16.90;77.45
17060;BME280;8646;49.716;9.266;2023-08-07T13:01:07;100326.97;;;16.90;76.51
17060;BME280;8646;49.716;9.266;2023-08-07T13:04:10;100326.44;;;16.85;76.82
17060;BME280;8646;49.716;9.266;2023-08-07T13:07:16;100329.16;;;16.85;77.38
17060;BME280;8646;49.716;9.266;2023-08-07T13:10:20;100324.34;;;16.89;77.47
17060;BME280;8646;49.716;9.266;2023-08-07T13:13:23;100326.56;;;16.96;77.23
17060;BME280;8646;49.716;9.266;2023-08-07T13:16:26;100332.47;;;17.03;77.30
17060;BME280;8646;49.716;9.266;2023-08-07T13:19:29;100332.94;;;17.09;77.01
17060;BME280;8646;49.716;9.266;2023-08-07T13:22:32;100323.97;;;17.07;76.79
17060;BME280;8646;49.716;9.266;2023-08-07T13:25:36;100323.00;;;17.08;77.36
17060;BME280;8646;49.716;9.266;2023-08-07T13:28:39;100331.97;;;17.23;77.36
17060;BME280;8646;49.716;9.266;2023-08-07T13:31:42;100333.63;;;17.38;76.80
17060;BME280;8646;49.716;9.266;2023-08-07T13:34:48;100329.16;;;17.50;76.28
17060;BME280;8646;49.716;9.266;2023-08-07T13:37:51;100330.38;;;17.59;76.44
17060;BME280;8646;49.716;9.266;2023-08-07T13:40:55;100324.25;;;17.80;75.83
17060;BME280;8646;49.716;9.266;2023-08-07T13:43:58;100320.84;;;17.89;76.02
17060;BME280;8646;49.716;9.266;2023-08-07T13:47:03;100316.75;;;18.08;76.08
17060;BME280;8646;49.716;9.266;2023-08-07T13:50:07;100312.31;;;18.30;75.17
17060;BME280;8646;49.716;9.266;2023-08-07T13:53:14;100320.78;;;18.51;74.60
17060;BME280;8646;49.716;9.266;2023-08-07T13:56:18;100308.84;;;18.76;73.95
17060;BME280;8646;49.716;9.266;2023-08-07T13:59:21;100312.66;;;18.97;72.67
17060;BME280;8646;49.716;9.266;2023-08-07T14:02:24;100314.09;;;19.14;72.14
17060;BME280;8646;49.716;9.266;2023-08-07T14:05:27;100301.06;;;19.40;72.27
17060;BME280;8646;49.716;9.266;2023-08-07T14:08:30;100302.00;;;19.74;71.80
17060;BME280;8646;49.716;9.266;2023-08-07T14:11:36;100294.25;;;20.12;70.85
17060;BME280;8646;49.716;9.266;2023-08-07T14:14:39;100290.25;;;20.39;70.49
17060;BME280;8646;49.716;9.266;2023-08-07T14:17:42;100291.34;;;20.59;69.57
17060;BME280;8646;49.716;9.266;2023-08-07T14:20:45;100285.41;;;20.74;68.92
17060;BME280;8646;49.716;9.266;2023-08-07T14:24:03;100285.97;;;20.89;69.12
17060;BME280;8646;49.716;9.266;2023-08-07T14:27:08;100294.50;;;21.07;68.59
17060;BME280;8646;49.716;9.266;2023-08-07T14:30:11;100289.28;;;21.24;64.75
17060;BME280;8646;49.716;9.266;2023-08-07T14:33:14;100291.97;;;21.15;65.04
17060;BME280;8646;49.716;9.266;2023-08-07T14:36:18;100287.63;;;21.01;65.08
17060;BME280;8646;49.716;9.266;2023-08-07T14:39:21;100284.25;;;20.77;65.78
17060;BME280;8646;49.716;9.266;2023-08-07T14:42:26;100286.44;;;20.62;64.86
17060;BME280;8646;49.716;9.266;2023-08-07T14:45:29;100290.47;;;20.47;65.69
17060;BME280;8646;49.716;9.266;2023-08-07T14:48:32;100289.94;;;20.53;64.40
17060;BME280;8646;49.716;9.266;2023-08-07T14:51:35;100291.81;;;20.64;64.96
17060;BME280;8646;49.716;9.266;2023-08-07T14:54:38;100298.84;;;20.88;64.55
17060;BME280;8646;49.716;9.266;2023-08-07T14:57:42;100295.63;;;21.04;63.13
17060;BME280;8646;49.716;9.266;2023-08-07T15:00:45;100276.41;;;21.25;61.55
17060;BME280;8646;49.716;9.266;2023-08-07T15:03:47;100284.59;;;21.36;59.83
17060;BME280;8646;49.716;9.266;2023-08-07T15:06:50;100282.97;;;21.13;59.13
17060;BME280;8646;49.716;9.266;2023-08-07T15:09:53;100282.78;;;20.93;59.58
17060;BME280;8646;49.716;9.266;2023-08-07T15:12:57;100288.63;;;21.00;60.32
17060;BME280;8646;49.716;9.266;2023-08-07T15:16:01;100287.38;;;21.04;60.68
17060;BME280;8646;49.716;9.266;2023-08-07T15:19:04;100281.53;;;20.98;61.28
17060;BME280;8646;49.716;9.266;2023-08-07T15:22:07;100278.56;;;20.89;60.72
17060;BME280;8646;49.716;9.266;2023-08-07T15:25:10;100271.50;;;20.76;59.62
17060;BME280;8646;49.716;9.266;2023-08-07T15:28:14;100274.19;;;20.66;60.46
17060;BME280;8646;49.716;9.266;2023-08-07T15:31:17;100275.19;;;20.65;60.88
17060;BME280;8646;49.716;9.266;2023-08-07T15:34:20;100275.94;;;20.67;61.36
17060;BME280;8646;49.716;9.266;2023-08-07T15:37:23;100273.91;;;20.69;61.30
17060;BME280;8646;49.716;9.266;2023-08-07T15:40:26;100269.63;;;20.76;60.27
17060;BME280;8646;49.716;9.266;2023-08-07T15:43:30;100268.25;;;20.82;59.12
17060;BME280;8646;49.716;9.266;2023-08-07T15:46:33;100271.06;;;20.91;58.29
17060;BME280;8646;49.716;9.266;2023-08-07T15:49:36;100271.28;;;21.00;56.73
17060;BME280;8646;49.716;9.266;2023-08-07T15:52:39;100265.91;;;20.98;55.81
17060;BME280;8646;49.716;9.266;2023-08-07T15:55:42;100264.75;;;21.01;56.44
17060;BME280;8646;49.716;9.266;2023-08-07T15:58:46;100252.22;;;21.08;54.66
17060;BME280;8646;49.716;9.266;2023-08-07T16:01:49;100254.81;;;21.09;53.21
17060;BME280;8646;49.716;9.266;2023-08-07T16:04:52;100248.81;;;21.15;53.99
17060;BME280;8646;49.716;9.266;2023-08-07T16:07:54;100252.50;;;21.25;54.16
17060;BME280;8646;49.716;9.266;2023-08-07T16:10:57;100237.06;;;21.34;52.59
17060;BME280;8646;49.716;9.266;2023-08-07T16:14:03;100254.44;;;21.35;54.06
17060;BME280;8646;49.716;9.266;2023-08-07T16:17:06;100262.22;;;21.50;53.54
17060;BME280;8646;49.716;9.266;2023-08-07T16:20:09;100242.94;;;21.50;51.46